createdAt,value
2018-09-29T00:00:27.802Z,7.92
2018-09-29T00:02:56.273Z,7.86
2018-09-29T00:05:24.698Z,7.83
2018-09-29T00:07:52.993Z,7.80
2018-09-29T00:10:21.224Z,7.77
2018-09-29T00:12:49.529Z,7.72
2018-09-29T00:15:18.016Z,7.66
2018-09-29T00:17:46.165Z,7.62
2018-09-29T00:20:14.607Z,7.58
2018-09-29T00:22:43.273Z,7.55
2018-09-29T00:25:11.761Z,7.52
2018-09-29T00:27:39.930Z,7.49
2018-09-29T00:30:08.097Z,7.46
2018-09-29T00:32:36.297Z,7.45
2018-09-29T00:35:04.681Z,7.39
2018-09-29T00:37:32.812Z,7.34
2018-09-29T00:40:01.454Z,7.31
2018-09-29T00:42:29.615Z,7.27
2018-09-29T00:44:57.996Z,7.24
2018-09-29T00:47:26.478Z,7.20
2018-09-29T00:49:54.644Z,7.17
2018-09-29T00:52:23.162Z,7.16
2018-09-29T00:54:51.318Z,7.14
2018-09-29T00:57:19.457Z,7.09
2018-09-29T00:59:47.770Z,7.07
2018-09-29T01:02:16.328Z,7.02
2018-09-29T01:04:45.049Z,6.99
2018-09-29T01:07:13.185Z,6.99
2018-09-29T01:09:41.672Z,6.94
2018-09-29T01:12:10.150Z,6.89
2018-09-29T01:14:38.705Z,6.87
2018-09-29T01:17:06.920Z,6.84
2018-09-29T01:19:35.762Z,6.79
2018-09-29T01:22:04.464Z,6.77
2018-09-29T01:24:32.988Z,6.77
2018-09-29T01:27:01.933Z,6.77
2018-09-29T01:29:30.352Z,6.74
2018-09-29T01:31:59.081Z,6.70
2018-09-29T01:34:27.584Z,6.67
2018-09-29T01:36:56.103Z,6.66
2018-09-29T01:39:24.293Z,6.63
2018-09-29T01:41:52.444Z,6.57
2018-09-29T01:44:20.605Z,6.49
2018-09-29T01:46:48.777Z,6.41
2018-09-29T01:49:16.941Z,6.43
2018-09-29T01:51:45.406Z,6.43
2018-09-29T01:54:13.586Z,6.41
2018-09-29T01:56:42.077Z,6.36
2018-09-29T01:59:10.562Z,6.30
2018-09-29T02:01:39.058Z,6.32
2018-09-29T02:04:07.256Z,6.27
2018-09-29T02:06:35.677Z,6.23
2018-09-29T02:09:04.262Z,6.21
2018-09-29T02:11:32.429Z,6.18
2018-09-29T02:14:00.581Z,6.15
2018-09-29T02:16:29.078Z,6.13
2018-09-29T02:18:57.526Z,6.13
2018-09-29T02:21:26.013Z,6.11
2018-09-29T02:23:54.491Z,6.07
2018-09-29T02:26:22.833Z,6.07
2018-09-29T02:28:51.047Z,6.07
2018-09-29T02:31:19.384Z,6.05
2018-09-29T02:33:47.609Z,6.03
2018-09-29T02:36:25.269Z,6.00
2018-09-29T02:38:53.517Z,5.99
2018-09-29T02:41:21.745Z,5.98
2018-09-29T02:43:49.983Z,5.95
2018-09-29T02:46:18.142Z,5.92
2018-09-29T02:48:46.640Z,5.92
2018-09-29T02:51:15.295Z,5.88
2018-09-29T02:53:43.774Z,5.87
2018-09-29T02:56:11.920Z,5.82
2018-09-29T02:58:40.074Z,5.84
2018-09-29T03:01:08.580Z,5.80
2018-09-29T03:03:36.718Z,5.81
2018-09-29T03:06:05.211Z,5.78
2018-09-29T03:08:33.354Z,5.71
2018-09-29T03:11:02.116Z,5.74
2018-09-29T03:13:30.573Z,5.72
2018-09-29T03:15:58.744Z,5.73
2018-09-29T03:18:26.896Z,5.75
2018-09-29T03:20:55.633Z,5.75
2018-09-29T03:23:24.022Z,5.75
2018-09-29T03:25:52.514Z,5.76
2018-09-29T03:28:20.993Z,5.77
2018-09-29T03:30:49.145Z,5.76
2018-09-29T03:33:17.908Z,5.72
2018-09-29T03:35:46.316Z,5.69
2018-09-29T03:38:14.461Z,5.67
2018-09-29T03:40:42.942Z,5.65
2018-09-29T03:43:11.413Z,5.63
2018-09-29T03:45:39.893Z,5.60
2018-09-29T03:48:08.669Z,5.60
2018-09-29T03:50:36.812Z,5.57
2018-09-29T03:53:05.209Z,5.54
2018-09-29T03:55:33.776Z,5.53
2018-09-29T03:58:02.183Z,5.53
2018-09-29T04:00:30.742Z,5.50
2018-09-29T04:02:58.890Z,5.48
2018-09-29T04:05:27.301Z,5.46
2018-09-29T04:07:55.457Z,5.45
2018-09-29T04:10:23.929Z,5.42
2018-09-29T04:12:52.437Z,5.45
2018-09-29T04:15:20.901Z,5.41
2018-09-29T04:17:49.070Z,5.40
2018-09-29T04:20:17.227Z,5.41
2018-09-29T04:22:45.718Z,5.42
2018-09-29T04:25:14.185Z,5.42
2018-09-29T04:27:42.325Z,5.41
2018-09-29T04:30:10.465Z,5.40
2018-09-29T04:32:38.972Z,5.38
2018-09-29T04:35:07.143Z,5.33
2018-09-29T04:37:35.621Z,5.25
2018-09-29T04:40:04.129Z,5.20
2018-09-29T04:42:32.687Z,5.18
2018-09-29T04:47:35.644Z,5.24
2018-09-29T04:50:04.057Z,5.27
2018-09-29T04:52:32.573Z,5.29
2018-09-29T04:55:01.002Z,5.27
2018-09-29T04:57:29.161Z,5.29
2018-09-29T04:59:57.397Z,5.30
2018-09-29T05:02:26.168Z,5.31
2018-09-29T05:04:54.300Z,5.29
2018-09-29T05:07:22.448Z,5.27
2018-09-29T05:09:50.925Z,5.25
2018-09-29T05:12:19.435Z,5.24
2018-09-29T05:14:48.149Z,5.26
2018-09-29T05:17:16.633Z,5.26
2018-09-29T05:19:45.117Z,5.26
2018-09-29T05:22:13.630Z,5.26
2018-09-29T05:24:41.841Z,5.25
2018-09-29T05:27:09.988Z,5.22
2018-09-29T05:29:38.784Z,5.16
2018-09-29T05:32:07.281Z,5.06
2018-09-29T05:34:35.752Z,5.03
2018-09-29T05:37:04.241Z,5.00
2018-09-29T05:39:32.388Z,4.98
2018-09-29T05:42:01.173Z,4.96
2018-09-29T05:45:37.608Z,4.98
2018-09-29T05:48:06.003Z,5.03
2018-09-29T05:50:34.341Z,5.07
2018-09-29T05:53:02.599Z,5.12
2018-09-29T05:55:30.723Z,5.22
2018-09-29T05:57:59.197Z,5.32
2018-09-29T06:00:31.296Z,5.44
2018-09-29T06:03:01.509Z,5.58
2018-09-29T06:05:30.068Z,5.72
2018-09-29T06:07:58.897Z,5.87
2018-09-29T06:10:27.588Z,6.03
2018-09-29T06:12:55.749Z,6.19
2018-09-29T06:15:23.886Z,6.38
2018-09-29T06:17:52.654Z,6.58
2018-09-29T06:20:21.104Z,6.75
2018-09-29T06:22:49.860Z,6.91
2018-09-29T06:25:18.333Z,7.04
2018-09-29T06:27:46.535Z,7.20
2018-09-29T06:30:15.168Z,7.34
2018-09-29T06:32:43.585Z,7.46
2018-09-29T06:35:12.191Z,7.59
2018-09-29T06:37:40.632Z,7.73
2018-09-29T06:40:09.132Z,7.88
2018-09-29T06:42:37.916Z,8.05
2018-09-29T06:45:07.409Z,8.24
2018-09-29T06:47:35.729Z,8.49
2018-09-29T06:50:04.029Z,8.72
2018-09-29T06:52:32.832Z,8.94
2018-09-29T06:55:01.076Z,9.16
2018-09-29T06:57:29.509Z,9.43
2018-09-29T06:59:58.103Z,9.64
2018-09-29T07:02:26.504Z,9.85
2018-09-29T07:04:54.647Z,10.04
2018-09-29T07:07:23.267Z,10.17
2018-09-29T07:09:51.615Z,10.29
2018-09-29T07:12:20.344Z,10.45
2018-09-29T07:14:48.822Z,10.62
2018-09-29T07:17:17.481Z,10.73
2018-09-29T07:19:45.772Z,10.84
2018-09-29T07:22:13.904Z,11.01
2018-09-29T07:24:42.384Z,11.26
2018-09-29T07:27:11.215Z,11.53
2018-09-29T07:29:39.992Z,11.64
2018-09-29T07:32:12.327Z,11.67
2018-09-29T07:34:43.104Z,11.76
2018-09-29T07:37:14.327Z,11.92
2018-09-29T07:39:44.465Z,12.14
2018-09-29T07:42:13.015Z,12.31
2018-09-29T07:44:41.496Z,12.38
2018-09-29T07:47:09.921Z,12.49
2018-09-29T07:49:45.292Z,12.57
2018-09-29T07:52:13.717Z,12.75
2018-09-29T07:54:41.880Z,12.96
2018-09-29T07:57:13.260Z,13.18
2018-09-29T07:59:42.193Z,13.42
2018-09-29T08:02:14.406Z,13.58
2018-09-29T08:04:43.084Z,13.64
2018-09-29T08:07:15.056Z,13.70
2018-09-29T08:09:46.912Z,13.82
2018-09-29T08:12:15.401Z,13.92
2018-09-29T08:15:43.359Z,14.03
2018-09-29T08:18:15.321Z,14.34
2018-09-29T08:20:44.077Z,14.53
2018-09-29T08:23:12.224Z,14.77
2018-09-29T08:25:40.364Z,14.95
2018-09-29T08:28:08.813Z,15.01
2018-09-29T08:30:43.056Z,14.97
2018-09-29T08:33:11.216Z,14.96
2018-09-29T08:35:39.349Z,15.06
2018-09-29T08:38:08.157Z,15.25
2018-09-29T08:40:36.665Z,15.49
2018-09-29T08:43:04.893Z,15.69
2018-09-29T08:45:33.369Z,15.94
2018-09-29T08:48:01.781Z,16.24
2018-09-29T08:50:30.449Z,16.30
2018-09-29T08:52:59.674Z,16.34
2018-09-29T08:55:32.778Z,16.48
2018-09-29T08:58:01.613Z,16.43
2018-09-29T09:00:30.217Z,16.44
2018-09-29T09:02:58.881Z,16.48
2018-09-29T09:05:30.906Z,16.56
2018-09-29T09:07:59.621Z,16.72
2018-09-29T09:10:28.185Z,16.83
2018-09-29T09:12:56.453Z,17.12
2018-09-29T09:15:25.501Z,17.41
2018-09-29T09:17:58.660Z,17.59
2018-09-29T09:20:32.863Z,17.77
2018-09-29T09:23:01.236Z,17.79
2018-09-29T09:25:29.520Z,17.82
2018-09-29T09:27:57.900Z,18.01
2018-09-29T09:30:26.068Z,18.15
2018-09-29T09:32:58.664Z,18.21
2018-09-29T09:35:28.742Z,18.18
2018-09-29T09:37:57.208Z,18.35
2018-09-29T09:40:25.457Z,18.52
2018-09-29T09:42:54.213Z,18.52
2018-09-29T09:45:22.352Z,18.52
2018-09-29T09:47:50.820Z,18.68
2018-09-29T09:50:20.593Z,18.91
2018-09-29T09:52:49.724Z,19.23
2018-09-29T09:55:25.170Z,19.28
2018-09-29T09:57:54.032Z,19.16
2018-09-29T10:00:33.512Z,19.24
2018-09-29T10:03:07.277Z,19.47
2018-09-29T10:05:35.433Z,19.86
2018-09-29T10:08:04.181Z,19.94
2018-09-29T10:10:32.907Z,19.77
2018-09-29T10:13:01.104Z,19.39
2018-09-29T10:15:29.605Z,19.28
2018-09-29T10:17:58.365Z,19.35
2018-09-29T10:20:26.841Z,19.53
2018-09-29T10:22:55.328Z,19.78
2018-09-29T10:25:25.730Z,20.10
2018-09-29T10:27:54.888Z,20.38
2018-09-29T10:30:23.947Z,20.75
2018-09-29T10:32:52.083Z,21.18
2018-09-29T10:35:20.316Z,21.50
2018-09-29T10:37:49.243Z,21.60
2018-09-29T10:40:20.112Z,21.25
2018-09-29T10:42:48.238Z,20.62
2018-09-29T10:45:16.771Z,20.01
2018-09-29T10:47:45.104Z,19.64
2018-09-29T10:50:13.655Z,19.67
2018-09-29T10:52:42.593Z,20.02
2018-09-29T10:55:10.766Z,20.43
2018-09-29T10:57:39.400Z,20.79
2018-09-29T11:00:08.517Z,20.86
2018-09-29T11:02:37.105Z,20.88
2018-09-29T11:05:05.452Z,20.78
2018-09-29T11:07:35.399Z,20.32
2018-09-29T11:10:04.967Z,19.94
2018-09-29T11:12:33.460Z,19.95
2018-09-29T11:15:02.172Z,20.37
2018-09-29T11:17:31.324Z,20.90
2018-09-29T11:19:59.966Z,21.41
2018-09-29T11:22:29.631Z,21.99
2018-09-29T11:24:57.945Z,22.31
2018-09-29T11:27:26.713Z,22.52
2018-09-29T11:29:55.487Z,22.71
2018-09-29T11:32:24.768Z,22.60
2018-09-29T11:34:53.865Z,22.44
2018-09-29T11:37:22.273Z,22.24
2018-09-29T11:39:50.397Z,22.30
2018-09-29T11:42:18.527Z,22.28
2018-09-29T11:44:47.017Z,21.93
2018-09-29T11:47:15.581Z,21.40
2018-09-29T11:49:43.718Z,20.84
2018-09-29T11:52:12.197Z,20.34
2018-09-29T11:54:40.667Z,20.13
2018-09-29T11:57:08.827Z,20.37
2018-09-29T11:59:38.062Z,20.82
2018-09-29T12:02:06.370Z,21.33
2018-09-29T12:04:35.032Z,21.66
2018-09-29T12:07:03.437Z,21.75
2018-09-29T12:09:31.749Z,21.36
2018-09-29T12:12:00.385Z,21.04
2018-09-29T12:14:29.205Z,20.72
2018-09-29T12:16:57.423Z,20.48
2018-09-29T12:19:26.209Z,20.26
2018-09-29T12:21:54.820Z,20.07
2018-09-29T12:24:23.592Z,20.10
2018-09-29T12:26:52.585Z,20.52
2018-09-29T12:29:20.809Z,21.12
2018-09-29T12:31:50.437Z,21.60
2018-09-29T12:34:18.580Z,22.02
2018-09-29T12:36:47.165Z,22.45
2018-09-29T12:39:16.513Z,22.86
2018-09-29T12:41:47.136Z,22.68
2018-09-29T12:44:15.736Z,22.14
2018-09-29T12:46:44.616Z,21.67
2018-09-29T12:49:13.795Z,21.27
2018-09-29T12:51:42.017Z,20.93
2018-09-29T12:54:11.001Z,20.67
2018-09-29T12:56:39.472Z,20.78
2018-09-29T12:59:19.100Z,21.09
2018-09-29T13:01:47.880Z,21.52
2018-09-29T13:04:16.382Z,21.78
2018-09-29T13:06:44.959Z,21.82
2018-09-29T13:09:13.837Z,21.75
2018-09-29T13:11:42.573Z,21.88
2018-09-29T13:14:11.052Z,22.15
2018-09-29T13:16:39.606Z,22.36
2018-09-29T13:19:09.308Z,22.47
2018-09-29T13:21:39.161Z,22.60
2018-09-29T13:24:09.969Z,22.61
2018-09-29T13:26:39.049Z,22.59
2018-09-29T13:29:09.745Z,22.56
2018-09-29T13:31:40.018Z,22.32
2018-09-29T13:34:10.041Z,22.30
2018-09-29T13:36:39.104Z,22.47
2018-09-29T13:39:13.785Z,22.62
2018-09-29T13:41:42.557Z,22.77
2018-09-29T13:44:14.440Z,22.87
2018-09-29T13:46:42.666Z,22.92
2018-09-29T13:49:13.970Z,23.00
2018-09-29T13:51:43.753Z,23.09
2018-09-29T13:54:12.533Z,23.17
2018-09-29T13:56:40.973Z,23.03
2018-09-29T13:59:12.420Z,22.84
2018-09-29T14:01:44.994Z,22.61
2018-09-29T14:04:16.333Z,22.53
2018-09-29T14:06:45.769Z,22.60
2018-09-29T14:09:14.325Z,22.88
2018-09-29T14:11:46.418Z,23.28
2018-09-29T14:14:16.624Z,23.64
2018-09-29T14:16:45.149Z,23.95
2018-09-29T14:19:14.945Z,24.05
2018-09-29T14:21:44.206Z,23.75
2018-09-29T14:24:13.008Z,23.38
2018-09-29T14:26:41.757Z,23.08
2018-09-29T14:29:12.814Z,22.92
2018-09-29T14:31:41.309Z,22.99
2018-09-29T14:34:13.046Z,23.02
2018-09-29T14:36:42.458Z,22.97
2018-09-29T14:39:11.187Z,22.67
2018-09-29T14:41:40.315Z,22.62
2018-09-29T14:44:10.012Z,22.71
2018-09-29T14:46:38.961Z,22.90
2018-09-29T14:49:08.789Z,22.75
2018-09-29T14:51:37.766Z,22.40
2018-09-29T14:54:06.799Z,21.94
2018-09-29T14:56:35.349Z,21.71
2018-09-29T14:59:05.102Z,21.60
2018-09-29T15:01:33.713Z,21.45
2018-09-29T15:04:02.296Z,21.41
2018-09-29T15:06:31.223Z,21.29
2018-09-29T15:08:59.981Z,21.28
2018-09-29T15:11:28.453Z,21.26
2018-09-29T15:13:57.188Z,21.29
2018-09-29T15:16:25.693Z,21.18
2018-09-29T15:18:53.899Z,20.97
2018-09-29T15:21:22.373Z,20.69
2018-09-29T15:23:50.541Z,20.64
2018-09-29T15:26:19.033Z,20.67
2018-09-29T15:28:47.719Z,20.76
2018-09-29T15:31:16.140Z,20.69
2018-09-29T15:33:44.301Z,20.71
2018-09-29T15:36:13.391Z,20.85
2018-09-29T15:38:42.052Z,20.88
2018-09-29T15:41:10.483Z,20.88
2018-09-29T15:43:38.956Z,20.92
2018-09-29T15:46:07.313Z,20.71
2018-09-29T15:48:36.131Z,20.46
2018-09-29T15:51:04.444Z,20.23
2018-09-29T15:53:33.225Z,20.20
2018-09-29T15:56:01.689Z,20.11
2018-09-29T15:58:30.446Z,19.98
2018-09-29T16:00:58.928Z,19.77
2018-09-29T16:03:27.501Z,19.71
2018-09-29T16:05:56.215Z,19.76
2018-09-29T16:08:24.697Z,19.72
2018-09-29T16:10:53.072Z,19.71
2018-09-29T16:13:21.301Z,19.75
2018-09-29T16:15:49.822Z,19.79
2018-09-29T16:18:18.247Z,19.85
2018-09-29T16:20:46.753Z,19.88
2018-09-29T16:23:15.001Z,19.85
2018-09-29T16:25:43.169Z,19.77
2018-09-29T16:28:11.341Z,19.71
2018-09-29T16:30:39.833Z,19.65
2018-09-29T16:33:09.555Z,19.56
2018-09-29T16:35:38.033Z,19.47
2018-09-29T16:38:06.181Z,19.38
2018-09-29T16:40:34.689Z,19.26
2018-09-29T16:43:03.449Z,19.07
2018-09-29T16:45:32.232Z,18.89
2018-09-29T16:48:00.385Z,18.71
2018-09-29T16:50:28.905Z,18.55
2018-09-29T16:52:57.098Z,18.41
2018-09-29T16:55:25.606Z,18.25
2018-09-29T16:57:54.390Z,18.08
2018-09-29T17:00:26.889Z,17.92
2018-09-29T17:02:55.092Z,17.70
2018-09-29T17:05:23.289Z,17.50
2018-09-29T17:07:51.479Z,17.36
2018-09-29T17:10:19.659Z,17.19
2018-09-29T17:12:48.990Z,17.01
2018-09-29T17:15:18.185Z,16.88
2018-09-29T17:17:46.672Z,16.80
2018-09-29T17:20:15.705Z,16.72
2018-09-29T17:22:44.152Z,16.63
2018-09-29T17:25:12.438Z,16.54
2018-09-29T17:27:41.204Z,16.43
2018-09-29T17:30:09.861Z,16.28
2018-09-29T17:32:38.416Z,16.09
2018-09-29T17:35:06.623Z,16.00
2018-09-29T17:37:36.102Z,15.92
2018-09-29T17:40:07.553Z,15.85
2018-09-29T17:42:36.472Z,15.75
2018-09-29T17:45:05.000Z,15.66
2018-09-29T17:47:38.538Z,15.58
2018-09-29T17:50:14.465Z,15.52
2018-09-29T17:52:43.083Z,15.44
2018-09-29T17:55:11.888Z,15.39
2018-09-29T17:57:40.140Z,15.29
2018-09-29T18:00:09.809Z,15.20
2018-09-29T18:02:38.117Z,15.07
2018-09-29T18:05:06.437Z,14.89
2018-09-29T18:07:34.936Z,14.75
2018-09-29T18:10:03.701Z,14.62
2018-09-29T18:12:32.756Z,14.51
2018-09-29T18:15:01.393Z,14.36
2018-09-29T18:17:29.541Z,14.23
2018-09-29T18:19:58.174Z,14.11
2018-09-29T18:22:26.680Z,14.01
2018-09-29T18:24:55.193Z,13.93
2018-09-29T18:27:23.672Z,13.85
2018-09-29T18:29:52.169Z,13.76
2018-09-29T18:32:20.480Z,13.68
2018-09-29T18:34:48.748Z,13.60
2018-09-29T18:37:17.543Z,13.51
2018-09-29T18:39:46.558Z,13.52
2018-09-29T18:42:16.858Z,13.50
2018-09-29T18:44:47.905Z,13.49
2018-09-29T18:47:18.753Z,13.46
2018-09-29T18:49:47.628Z,13.45
2018-09-29T18:52:16.119Z,13.44
2018-09-29T18:54:44.245Z,13.38
2018-09-29T18:57:12.831Z,13.28
2018-09-29T18:59:41.696Z,13.13
2018-09-29T19:02:10.150Z,12.98
2018-09-29T19:04:38.387Z,12.79
2018-09-29T19:07:06.865Z,12.62
2018-09-29T19:09:35.264Z,12.51
2018-09-29T19:12:03.776Z,12.41
2018-09-29T19:14:32.293Z,12.32
2018-09-29T19:17:00.777Z,12.23
2018-09-29T19:19:29.497Z,12.15
2018-09-29T19:21:57.995Z,12.11
2018-09-29T19:24:26.446Z,12.02
2018-09-29T19:26:54.614Z,11.95
2018-09-29T19:29:22.749Z,11.87
2018-09-29T19:31:51.237Z,11.79
2018-09-29T19:34:19.705Z,11.74
2018-09-29T19:36:48.068Z,11.67
2018-09-29T19:39:17.048Z,11.62
2018-09-29T19:41:45.726Z,11.59
2018-09-29T19:44:14.220Z,11.58
2018-09-29T19:46:42.532Z,11.55
2018-09-29T19:49:14.142Z,11.57
2018-09-29T19:51:44.048Z,11.59
2018-09-29T19:54:12.772Z,11.62
2018-09-29T19:56:40.952Z,11.61
2018-09-29T20:00:04.005Z,11.53
2018-09-29T20:02:36.365Z,11.44
2018-09-29T20:05:04.873Z,11.34
2018-09-29T20:07:33.659Z,11.22
2018-09-29T20:10:02.189Z,11.15
2018-09-29T20:12:30.854Z,11.11
2018-09-29T20:14:59.386Z,11.09
2018-09-29T20:17:28.165Z,11.05
2018-09-29T20:19:56.503Z,11.03
2018-09-29T20:22:25.069Z,11.03
2018-09-29T20:24:53.866Z,10.99
2018-09-29T20:27:22.602Z,10.91
2018-09-29T20:29:51.100Z,10.83
2018-09-29T20:32:19.644Z,10.76
2018-09-29T20:34:48.066Z,10.68
2018-09-29T20:37:16.529Z,10.62
2018-09-29T20:39:45.216Z,10.57
2018-09-29T20:42:13.728Z,10.53
2018-09-29T20:44:42.122Z,10.48
2018-09-29T20:47:10.873Z,10.35
2018-09-29T20:49:39.032Z,10.21
2018-09-29T20:52:07.590Z,10.11
2018-09-29T20:54:35.761Z,10.07
2018-09-29T20:57:04.139Z,10.03
2018-09-29T20:59:32.944Z,10.00
2018-09-29T21:02:01.094Z,9.94
2018-09-29T21:04:29.573Z,9.91
2018-09-29T21:07:00.151Z,9.90
2018-09-29T21:09:36.294Z,9.88
2018-09-29T21:12:05.010Z,9.88
2018-09-29T21:14:33.549Z,9.87
2018-09-29T21:17:02.124Z,9.85
2018-09-29T21:19:30.603Z,9.86
2018-09-29T21:21:58.907Z,9.88
2018-09-29T21:24:27.955Z,9.89
2018-09-29T21:26:56.328Z,9.88
2018-09-29T21:29:24.760Z,9.85
2018-09-29T21:31:52.893Z,9.82
2018-09-29T21:34:21.124Z,9.75
2018-09-29T21:36:49.925Z,9.68
2018-09-29T21:39:18.133Z,9.60
2018-09-29T21:41:46.881Z,9.53
2018-09-29T21:44:15.030Z,9.46
2018-09-29T21:46:43.165Z,9.40
2018-09-29T21:49:11.316Z,9.38
2018-09-29T21:51:39.954Z,9.37
2018-09-29T21:54:08.442Z,9.38
2018-09-29T21:56:37.121Z,9.36
2018-09-29T21:59:12.877Z,9.36
2018-09-29T22:01:41.376Z,9.34
2018-09-29T22:04:10.037Z,9.34
2018-09-29T22:06:38.491Z,9.29
2018-09-29T22:09:07.832Z,9.27
2018-09-29T22:11:36.347Z,9.24
2018-09-29T22:14:05.064Z,9.22
2018-09-29T22:16:33.531Z,9.19
2018-09-29T22:19:02.100Z,9.18
2018-09-29T22:21:30.866Z,9.15
2018-09-29T22:23:58.996Z,9.13
2018-09-29T22:26:27.129Z,9.10
2018-09-29T22:28:55.567Z,9.06
2018-09-29T22:31:24.033Z,8.98
2018-09-29T22:33:52.787Z,8.92
2018-09-29T22:36:21.201Z,8.85
2018-09-29T22:38:49.672Z,8.77
2018-09-29T22:41:18.113Z,8.72
2018-09-29T22:43:46.240Z,8.67
2018-09-29T22:46:14.696Z,8.64
2018-09-29T22:48:42.861Z,8.60
2018-09-29T22:51:11.294Z,8.54
2018-09-29T22:53:39.436Z,8.45
2018-09-29T22:56:08.278Z,8.36
2018-09-29T22:58:36.408Z,8.27
2018-09-29T23:01:05.191Z,8.20
2018-09-29T23:03:33.673Z,8.15
2018-09-29T23:06:02.061Z,8.14
2018-09-29T23:08:30.689Z,8.12
2018-09-29T23:10:58.965Z,8.07
2018-09-29T23:13:27.613Z,8.02
2018-09-29T23:15:56.009Z,7.94
2018-09-29T23:18:24.729Z,7.88
2018-09-29T23:20:53.428Z,7.83
2018-09-29T23:23:22.210Z,7.79
2018-09-29T23:25:50.397Z,7.67
2018-09-29T23:28:19.172Z,7.62
2018-09-29T23:30:47.676Z,7.57
2018-09-29T23:33:15.920Z,7.57
2018-09-29T23:35:44.392Z,7.55
2018-09-29T23:38:12.875Z,7.51
2018-09-29T23:40:41.058Z,7.46
2018-09-29T23:43:10.447Z,7.39
2018-09-29T23:45:39.207Z,7.31
2018-09-29T23:48:08.022Z,7.26
2018-09-29T23:50:36.481Z,7.22
2018-09-29T23:53:05.161Z,7.18
2018-09-29T23:55:33.682Z,7.15
2018-09-29T23:58:02.502Z,7.13
